CW9778 Bellingham WA US current weather conditions

sailwx.info

Wind from 190 at 8 knots gusting 13

Air temperature 7.8° C
Dewpoint 7.8° C

Last reported at 2019-Dec-13 13:01 UTC.
Time now 2019-Dec-13 13:39 UTC

Location: N 48°47' W 122°34'.
View on Google Maps.

See reports from other nearby stations

  
Tides and Currents Weather Stations Pressure Air Temp Water Temp Dewpoint Dewpoint Depression Visibility Wind Speed Wind Dir Waves Ship Positions
date/time (UTC)wind fromknots sea level pressurealtimeterstation pressurevisibilityair tempwater tempwave heightnotes
2019-Dec-13 13:01 190 8 gusting 13 7.8
2019-Dec-13 12:45 193 13 gusting 19 7.8
2019-Dec-13 12:30 206 7 gusting 13 7.8
2019-Dec-13 12:15 194 6 gusting 13 7.8
2019-Dec-13 12:00 178 10 gusting 16 7.8
2019-Dec-13 11:48 198 8 gusting 13 7.8
2019-Dec-13 11:32 190 12 gusting 15 7.8
2019-Dec-13 11:16 180 10 gusting 13 8.3
2019-Dec-13 11:02 178 10 gusting 17 8.3
2019-Dec-13 10:46 179 14 gusting 19 8.3
2019-Dec-13 10:31 196 11 gusting 16 7.8
2019-Dec-13 10:17 212 12 gusting 14 7.8
2019-Dec-13 10:01 199 8 gusting 12 7.8
2019-Dec-13 09:46 205 6 gusting 10 8.3
2019-Dec-13 09:31 200 6 gusting 8 8.3
2019-Dec-13 09:16 186 8 gusting 12 8.3
2019-Dec-13 09:00 177 8 gusting 12 7.8
2019-Dec-13 08:45 182 10 gusting 14 7.8
2019-Dec-13 08:30 189 13 gusting 17 7.8
2019-Dec-13 08:17 196 14 gusting 19 7.8
2019-Dec-13 08:02 180 13 gusting 15 7.8
2019-Dec-13 07:47 169 10 gusting 14 7.8
2019-Dec-13 07:32 169 11 gusting 15 7.8
2019-Dec-13 07:16 171 13 gusting 19 7.8
2019-Dec-13 07:01 178 14 gusting 19 7.8
2019-Dec-13 06:45 187 16 gusting 25 8.3
2019-Dec-13 06:31 176 13 gusting 16 8.3
2019-Dec-13 06:15 180 10 gusting 16 8.3
2019-Dec-13 06:00 172 13 gusting 18 8.3
2019-Dec-13 05:45 174 13 gusting 19 8.3
2019-Dec-13 05:31 181 14 gusting 19 8.3
2019-Dec-13 05:15 169 14 gusting 19 8.3
2019-Dec-13 05:00 178 13 gusting 19 8.3
2019-Dec-13 04:49 175 13 gusting 19 8.3
2019-Dec-13 04:32 177 16 gusting 20 8.3
2019-Dec-13 04:17 173 13 gusting 19 8.3
2019-Dec-13 04:01 172 15 gusting 19 8.3
2019-Dec-13 03:47 188 15 gusting 19 8.3
2019-Dec-13 03:31 188 13 gusting 14 8.3
2019-Dec-13 03:16 184 15 gusting 18 8.3
2019-Dec-13 03:01 170 7 gusting 12 8.3
2019-Dec-13 02:46 162 7 gusting 12 8.3
2019-Dec-13 02:31 186 9 gusting 13 8.3
2019-Dec-13 02:15 177 8 gusting 12 8.3
2019-Dec-13 02:00 176 9 gusting 13 7.8
2019-Dec-13 01:45 179 6 gusting 7 7.8
2019-Dec-13 01:30 196 4 gusting 6 7.8
2019-Dec-13 01:20 221 4 gusting 8 7.8
2019-Dec-13 01:02 161 3 gusting 6 7.8
2019-Dec-13 00:47 147 1 gusting 3 7.8
2019-Dec-13 00:31 174 1 gusting 2 7.8
2019-Dec-13 00:17 173 2 gusting 3 7.8
2019-Dec-13 00:02 135 0 gusting 3 7.8
2019-Dec-12 23:45 281 1 gusting 8 8.3
2019-Dec-12 23:31 355 4 gusting 9 8.9
2019-Dec-12 23:16 189 12 gusting 16 8.9
2019-Dec-12 23:00 180 13 gusting 19 9.4
2019-Dec-12 22:45 182 15 gusting 22 9.4
2019-Dec-12 22:30 184 16 gusting 22 9.4
2019-Dec-12 22:15 173 17 gusting 26 8.9
2019-Dec-12 22:00 174 16 gusting 25 8.9
2019-Dec-12 21:47 169 17 gusting 25 8.3
2019-Dec-12 21:31 155 13 gusting 23 8.3
2019-Dec-12 21:17 168 14 gusting 23 8.9
2019-Dec-12 21:01 168 16 gusting 23 8.9
2019-Dec-12 20:48 171 14 gusting 19 8.9
2019-Dec-12 20:31 153 13 gusting 19 8.9
2019-Dec-12 20:16 162 13 gusting 20 8.9
2019-Dec-12 20:00 172 13 gusting 19 8.9
2019-Dec-12 19:47 161 12 gusting 19 9.4
2019-Dec-12 19:30 164 13 gusting 20 9.4
2019-Dec-12 19:15 178 13 gusting 19 9.4
2019-Dec-12 19:00 178 15 gusting 19 9.4
2019-Dec-12 18:45 167 17 gusting 23 9.4
2019-Dec-12 18:33 173 18 gusting 21 9.4
2019-Dec-12 18:18 173 13 gusting 17 9.4
2019-Dec-12 18:02 175 13 gusting 21 9.4
2019-Dec-12 17:47 173 17 gusting 19 9.4
2019-Dec-12 17:32 176 19 gusting 23 9.4
2019-Dec-12 17:17 178 16 gusting 21 9.4
2019-Dec-12 17:01 180 10 gusting 15 10.0
2019-Dec-12 16:47 174 11 gusting 19 10.0
2019-Dec-12 16:30 165 9 gusting 16 10.0
2019-Dec-12 16:15 168 15 gusting 19 10.0
2019-Dec-12 16:00 175 18 gusting 23 10.0
2019-Dec-12 15:45 178 17 gusting 21 10.0
2019-Dec-12 15:30 172 14 gusting 20 10.0
2019-Dec-12 15:15 171 16 gusting 19 10.0
2019-Dec-12 15:02 174 15 gusting 21 10.0
2019-Dec-12 14:47 178 16 gusting 20 10.0
2019-Dec-12 14:32 166 15 gusting 20 10.0
2019-Dec-12 14:17 175 15 gusting 20 10.0
2019-Dec-12 14:01 181 15 gusting 19 10.0
2019-Dec-12 13:47 184 16 gusting 19 10.0
2019-Dec-12 13:30 184 14 gusting 19 10.0
2019-Dec-12 13:15 175 14 gusting 19 10.0
2019-Dec-12 13:00 182 13 gusting 19 10.0
2019-Dec-12 12:45 173 18 gusting 23 10.0
2019-Dec-12 12:30 170 15 gusting 19 9.4
2019-Dec-12 12:15 176 16 gusting 20 9.4
2019-Dec-12 12:00 183 13 gusting 19 9.4
2019-Dec-12 11:45 181 16 gusting 20 9.4
2019-Dec-12 11:32 177 15 gusting 19 9.4
2019-Dec-12 11:18 170 11 gusting 19 9.4
2019-Dec-12 11:01 175 17 gusting 23 9.4
2019-Dec-12 10:47 172 16 gusting 24 10.0
2019-Dec-12 10:31 173 15 gusting 20 10.0
2019-Dec-12 10:16 176 15 gusting 23 10.0
2019-Dec-12 10:00 161 13 gusting 19 9.4
2019-Dec-12 09:45 173 11 gusting 19 9.4
2019-Dec-12 09:30 176 15 gusting 20 9.4
2019-Dec-12 09:15 186 18 gusting 23 9.4
2019-Dec-12 09:01 175 23 gusting 28 9.4
2019-Dec-12 08:45 186 22 gusting 27 9.4
2019-Dec-12 08:30 178 19 gusting 29 8.9
2019-Dec-12 08:15 174 20 gusting 35 8.9
2019-Dec-12 08:01 170 24 gusting 31 9.4
2019-Dec-12 07:46 169 26 gusting 33 9.4
2019-Dec-12 07:32 180 19 gusting 29 9.4
2019-Dec-12 07:01 157 15 gusting 23 8.3
2019-Dec-12 06:46 161 19 gusting 28 8.9
2019-Dec-12 06:31 168 19 gusting 32 8.9
2019-Dec-12 06:15 143 17 gusting 26 8.3
2019-Dec-12 06:00 151 14 gusting 20 8.3
2019-Dec-12 05:45 132 13 gusting 20 8.3
2019-Dec-12 05:30 154 13 gusting 22 8.3
2019-Dec-12 05:15 147 13 gusting 20 8.3
2019-Dec-12 05:00 153 14 gusting 24 8.3
2019-Dec-12 04:47 163 15 gusting 23 8.3
2019-Dec-12 04:33 144 10 gusting 22 8.3
2019-Dec-12 04:18 123 12 gusting 24 8.3
2019-Dec-12 04:02 156 13 gusting 21 8.9
2019-Dec-12 03:46 130 10 gusting 19 8.9
2019-Dec-12 03:34 137 11 gusting 18 8.9
2019-Dec-12 03:16 150 15 gusting 22 8.9
2019-Dec-12 03:01 138 13 gusting 19 8.9
2019-Dec-12 02:45 140 13 gusting 19 8.9
2019-Dec-12 02:30 157 12 gusting 20 9.4
2019-Dec-12 02:15 190 15 gusting 22 9.4
2019-Dec-12 02:00 167 13 gusting 19 9.4
2019-Dec-12 01:45 144 10 gusting 16 9.4
2019-Dec-12 01:30 172 10 gusting 16 9.4
2019-Dec-12 01:19 175 15 gusting 23 9.4
2019-Dec-12 01:02 165 17 gusting 23 9.4
2019-Dec-12 00:47 154 16 gusting 25 9.4
2019-Dec-12 00:31 178 19 gusting 28 9.4
2019-Dec-12 00:15 169 16 gusting 25 10.0
2019-Dec-12 00:02 175 15 gusting 24 10.0
2019-Dec-11 23:46 183 17 gusting 31 10.0
2019-Dec-11 23:31 169 13 gusting 19 10.6
2019-Dec-11 23:15 155 11 gusting 21 10.6
2019-Dec-11 23:01 169 13 gusting 20 10.0
2019-Dec-11 22:45 120 5 gusting 7 8.3
2019-Dec-11 22:30 066 3 gusting 6 7.8
2019-Dec-11 22:15 046 2 gusting 5 7.8
2019-Dec-11 22:00 012 3 gusting 7 7.8
2019-Dec-11 21:47 351 2 gusting 6 7.2
2019-Dec-11 21:33 089 0 gusting 6 7.2
2019-Dec-11 21:17 355 2 gusting 9 7.2
2019-Dec-11 21:04 036 1 gusting 6 7.2
2019-Dec-11 20:46 115 0 gusting 8 7.2
2019-Dec-11 20:31 024 3 gusting 10 7.2
2019-Dec-11 20:16 351 3 gusting 5 6.7
2019-Dec-11 20:01 116 0 gusting 5 6.7
2019-Dec-11 19:45 324 1 gusting 5 6.7
2019-Dec-11 19:30 036 6.7
2019-Dec-11 19:15 314 6.7
2019-Dec-11 19:00 095 0 gusting 6 6.7
2019-Dec-11 18:45 360 3 gusting 7 6.1
2019-Dec-11 18:30 360 5 gusting 9 6.1
2019-Dec-11 18:17 005 4 gusting 9 6.1
2019-Dec-11 18:02 025 4 gusting 7 6.1
2019-Dec-11 17:46 355 3 gusting 8 6.1
2019-Dec-11 17:31 005 3 gusting 7 6.1
2019-Dec-11 17:16 041 3 gusting 7 5.6
2019-Dec-11 17:01 340 5 gusting 9 5.6
2019-Dec-11 16:46 360 4 gusting 6 6.1
2019-Dec-11 16:31 005 2 gusting 5 6.1
2019-Dec-11 16:15 013 1 gusting 4 5.6
2019-Dec-11 16:01 038 1 gusting 4 5.6
2019-Dec-11 15:45 005 1 gusting 3 5.6
2019-Dec-11 15:30 005 1 gusting 4 5.6
2019-Dec-11 15:15 355 1 gusting 3 5.6
2019-Dec-11 14:47 013 1 gusting 3 5.6
2019-Dec-11 14:32 036 5.6
2019-Dec-11 14:18 355 1 gusting 2 5.0
2019-Dec-11 14:02 009 0 gusting 2 5.0
2019-Dec-11 13:46 346 5.0
2019-Dec-11 13:31 344 5.0
2019-Dec-11 13:16 009 5.0
2019-Dec-11 13:00 360 1 gusting 4 5.0